Home   Weather   USA   Rosenberg   Past weeks
Flag for USA

Past Weather in Rosenberg, Texas, USA — Yesterday and Last 2 Weeks

Currently: 81 °F. Passing clouds. (Weather station: Sugar Land Municipal/Hull Field Airport, USA). See more current weather

Past Weather in Rosenberg — Graph

°F

Rosenberg Temperature Yesterday

Maximum temperature yesterday: 95 °F (at 3:53 pm)
Minimum temperature yesterday: 78 °F (at 1:53 am)
Average temperature yesterday: 86 °F

High & Low Weather Summary for the Past Weeks

 TemperatureHumidityPressure
High98 °F (Jun 16, 3:53 pm)94% (Jun 17, 3:53 am)30.04 "Hg (Jun 17, 3:53 am)
Low71 °F (Jun 16, 5:53 am)34% (Jun 18, 1:53 pm)29.78 "Hg (Jun 21, 4:53 pm)
Average85 °F72%29.92 "Hg
* Reported Jun 9 1:53 am — Jun 24 1:53 am, Rosenberg. Weather by CustomWeather, © 2021

Note: Actual official high and low records may vary slightly from our data, if they occured in-between our weather recording intervals... More about our weather records

Rosenberg Weather History for the Previous 24 Hours

Scroll right to see more
 ConditionsComfort  
Time TempWeatherWind HumidityBarometerVisibility
1:53 am
Thu, Jun 24
82 °FClear.6 mph85%30.00 "Hg10 mi
12:53 am83 °FClear.10 mph82%29.99 "Hg10 mi
11:53 pm
Wed, Jun 23
83 °FClear.8 mph82%29.99 "Hg10 mi
10:53 pm84 °FClear.7 mph80%29.98 "Hg10 mi
10:06 pm84 °FPassing clouds.9 mph77%29.98 "Hg10 mi
8:53 pm86 °FClear.9 mph72%29.96 "Hg10 mi
7:53 pm89 °FSunny.15 mph63%29.94 "Hg10 mi
6:53 pm92 °FSunny.14 mph56%29.94 "Hg10 mi
5:53 pm94 °FSunny.16 mph54%29.94 "Hg10 mi
4:53 pm95 °FSunny.12 mph51%29.94 "Hg10 mi
3:53 pm95 °FSunny.6 mph52%29.94 "Hg10 mi
2:53 pm94 °FSunny.6 mph51%29.95 "Hg10 mi
1:53 pm94 °FPassing clouds.8 mph58%29.96 "Hg10 mi
12:53 pm92 °FPartly sunny.13 mph62%29.98 "Hg10 mi
11:53 am91 °FPassing clouds.12 mph60%30.00 "Hg10 mi
10:53 am88 °FPassing clouds.10 mph73%30.00 "Hg10 mi
10:08 am84 °FCloudy.12 mph80%29.99 "Hg10 mi
9:53 am87 °FMostly cloudy.12 mph77%29.98 "Hg10 mi
8:53 am86 °FCloudy.7 mph83%29.98 "Hg10 mi
8:38 am85 °FPartly sunny.6 mph83%29.98 "Hg10 mi
7:53 am83 °FScattered clouds.3 mph85%29.97 "Hg10 mi
7:29 am82 °FScattered clouds.3 mph85%29.96 "Hg10 mi
7:20 am81 °FBroken clouds.No wind88%29.96 "Hg10 mi
6:53 am79 °FSunny.No wind88%29.96 "Hg10 mi
5:53 am80 °FClear.3 mph87%29.94 "Hg10 mi
4:53 am79 °FClear.3 mph88%29.93 "Hg10 mi
3:53 am80 °FClear.3 mph85%29.93 "Hg10 mi
Weather by CustomWeather, © 2021

See weather overview